Map

Track Data

SID SEASON NUMBER BASIN SUBBASIN NAME ISO_TIME NATURE LAT LON WMO_WIND WMO_PRES WMO_AGENCY TRACK_TYPE DIST2LAND LANDFALL IFLAG USA_AGENCY USA_ATCF_ID USA_LAT USA_LON USA_RECORD USA_STATUS USA_WIND USA_PRES USA_SSHS USA_R34_NE USA_R34_SE USA_R34_SW USA_R34_NW USA_R50_NE USA_R50_SE USA_R50_SW USA_R50_NW USA_R64_NE USA_R64_SE USA_R64_SW USA_R64_NW USA_POCI USA_ROCI USA_RMW USA_EYE TOKYO_LAT TOKYO_LON TOKYO_GRADE TOKYO_WIND TOKYO_PRES TOKYO_R50_DIR TOKYO_R50_LONG TOKYO_R50_SHORT TOKYO_R30_DIR TOKYO_R30_LONG TOKYO_R30_SHORT TOKYO_LAND CMA_LAT CMA_LON CMA_CAT CMA_WIND CMA_PRES HKO_LAT HKO_LON HKO_CAT HKO_WIND HKO_PRES NEWDELHI_LAT NEWDELHI_LON NEWDELHI_GRADE NEWDELHI_WIND NEWDELHI_PRES NEWDELHI_CI NEWDELHI_DP NEWDELHI_POCI REUNION_LAT REUNION_LON REUNION_TYPE REUNION_WIND REUNION_PRES REUNION_TNUM REUNION_CI REUNION_RMW REUNION_R34_NE REUNION_R34_SE REUNION_R34_SW REUNION_R34_NW REUNION_R50_NE REUNION_R50_SE REUNION_R50_SW REUNION_R50_NW REUNION_R64_NE REUNION_R64_SE REUNION_R64_SW REUNION_R64_NW BOM_LAT BOM_LON BOM_TYPE BOM_WIND BOM_PRES BOM_TNUM BOM_CI BOM_RMW BOM_R34_NE BOM_R34_SE BOM_R34_SW BOM_R34_NW BOM_R50_NE BOM_R50_SE BOM_R50_SW BOM_R50_NW BOM_R64_NE BOM_R64_SE BOM_R64_SW BOM_R64_NW BOM_ROCI BOM_POCI BOM_EYE BOM_POS_METHOD BOM_PRES_METHOD NADI_LAT NADI_LON NADI_CAT NADI_WIND NADI_PRES WELLINGTON_LAT WELLINGTON_LON WELLINGTON_WIND WELLINGTON_PRES DS824_LAT DS824_LON DS824_STAGE DS824_WIND DS824_PRES TD9636_LAT TD9636_LON TD9636_STAGE TD9636_WIND TD9636_PRES TD9635_LAT TD9635_LON TD9635_WIND TD9635_PRES TD9635_ROCI NEUMANN_LAT NEUMANN_LON NEUMANN_CLASS NEUMANN_WIND NEUMANN_PRES MLC_LAT MLC_LON MLC_CLASS MLC_WIND MLC_PRES USA_GUST BOM_GUST BOM_GUST_PER REUNION_GUST REUNION_GUST_PER USA_SEAHGT USA_SEARAD_NE USA_SEARAD_SE USA_SEARAD_SW USA_SEARAD_NW STORM_SPEED STORM_DIR
1927277N17089 1927 56 NI BB NOT_NAMED 1927-10-04 00:00:00 TS 17.3000 88.7000 main 387 365 _________O____ -1 17.3000 88.7000 TC 30 5 285
1927277N17089 1927 56 NI BB NOT_NAMED 1927-10-04 03:00:00 TS 17.3584 88.4700 main 365 332 _________PO___ -1 17.3876 88.3550 TC 30 17.3000 88.7000 1 6 288
1927277N17089 1927 56 NI BB NOT_NAMED 1927-10-04 06:00:00 TS 17.4805 88.1174 main 332 306 _________OP___ -1 17.5000 88.0000 TC 30 17.4513 88.2935 1 7 291
1927277N17089 1927 56 NI BB NOT_NAMED 1927-10-04 09:00:00 TS 17.6250 87.7526 main 306 282 _________PP___ -1 17.6500 87.6351 TC 30 17.5917 87.9093 1 7 293
1927277N17089 1927 56 NI BB NOT_NAMED 1927-10-04 12:00:00 TS 17.7556 87.4352 main 267 260 _________OP___ -1 17.8000 87.3000 TC 30 17.7112 87.5704 1 6 292
1927277N17089 1927 56 NI BB NOT_NAMED 1927-10-04 15:00:00 TS 17.8537 87.1675 main 249 242 _________PO___ -1 17.9074 87.0349 TC 30 17.8000 87.3000 1 5 291
1927277N17089 1927 56 NI BB NOT_NAMED 1927-10-04 18:00:00 TS 17.9285 86.9524 main 242 224 _________OP___ -1 18.0000 86.8000 TC 30 17.8569 87.1048 1 4 290
1927277N17089 1927 56 NI BB NOT_NAMED 1927-10-04 21:00:00 TS 17.9885 86.7782 main 224 203 _________PP___ -1 18.0619 86.6319 TC 30 17.9151 86.9245 1 5 292
1927277N17089 1927 56 NI BB NOT_NAMED 1927-10-05 00:00:00 TS 18.1079 86.4911 main 203 157 _________OP___ -1 18.2000 86.3000 TC 30 18.0158 86.6821 1 9 294
1927277N17089 1927 56 NI BB NOT_NAMED 1927-10-05 03:00:00 TS 18.3490 85.9376 main 148 62 _________PO___ -1 18.4981 85.5752 TC 30 18.2000 86.3000 1 14 295
1927277N17089 1927 56 NI BB NOT_NAMED 1927-10-05 06:00:00 TS 18.6897 85.1721 main 62 0 _________OP___ -1 18.9000 84.7000 TC 30 18.4794 85.6442 1 16 297
1927277N17089 1927 56 NI BB NOT_NAMED 1927-10-05 09:00:00 TS 19.0828 84.3877 main 0 0 _________PP___ -1 19.3198 83.9272 TC 30 18.8458 84.8483 1 17 300
1927277N17089 1927 56 NI BB NOT_NAMED 1927-10-05 12:00:00 TS 19.5444 83.6015 main 0 0 _________OP___ -1 19.8000 83.2000 TC 30 19.2888 84.0031 1 17 304
1927277N17089 1927 56 NI BB NOT_NAMED 1927-10-05 15:00:00 TS 20.0562 82.8560 main 0 0 _________PO___ -1 20.3123 82.5121 TC 30 19.8000 83.2000 1 17 310
1927277N17089 1927 56 NI BB NOT_NAMED 1927-10-05 18:00:00 TS 20.6685 82.1945 main 0 0 _________OP___ -1 20.9000 81.9000 TC 30 20.4371 82.4891 1 18 318
1927277N17089 1927 56 NI BB NOT_NAMED 1927-10-05 21:00:00 TS 21.3924 81.5812 main 0 0 _________PP___ -1 21.6600 81.3183 TC 30 21.1248 81.8441 1 17 323
1927277N17089 1927 56 NI BB NOT_NAMED 1927-10-06 00:00:00 TS 22.0375 81.1008 main 0 0 _________OP___ -1 22.3000 80.9000 TC 30 21.7751 81.3016 1 13 325
1927277N17089 1927 56 NI BB NOT_NAMED 1927-10-06 03:00:00 TS 22.4161 80.8158 main 0 0 _________PO___ -1 22.5322 80.7317 TC 30 22.3000 80.9000 1 7 325
1927277N17089 1927 56 NI BB NOT_NAMED 1927-10-06 06:00:00 TS 22.5885 80.6871 main 0 0 _________OP___ -1 22.6000 80.7000 TC 30 22.5770 80.6742 1 4 330
1927277N17089 1927 56 NI BB NOT_NAMED 1927-10-06 09:00:00 TS 22.7342 80.6158 main 0 0 _________PP___ -1 22.7425 80.6425 TC 30 22.7259 80.5891 1 3 341
1927277N17089 1927 56 NI BB NOT_NAMED 1927-10-06 12:00:00 TS 22.8560 80.5923 main 0 0 _________OP___ -1 22.9000 80.6000 TC 30 22.8119 80.5846 1 3 351
1927277N17089 1927 56 NI BB NOT_NAMED 1927-10-06 15:00:00 TS 22.9962 80.5750 main 0 0 _________PO___ -1 23.0925 80.5500 TC 30 22.9000 80.6000 1 3 348
1927277N17089 1927 56 NI BB NOT_NAMED 1927-10-06 18:00:00 TS 23.1887 80.5194 main 0 0 _________OP___ -1 23.3000 80.5000 TC 30 23.0775 80.5387 1 4 346
1927277N17089 1927 56 NI BB NOT_NAMED 1927-10-06 21:00:00 TS 23.3812 80.4675 main 0 0 _________PP___ -1 23.4925 80.4500 TC 30 23.2700 80.4850 1 4 348
1927277N17089 1927 56 NI BB NOT_NAMED 1927-10-07 00:00:00 TS 23.5887 80.4194 main 0 0 _________OP___ -1 23.7000 80.4000 TC 30 23.4775 80.4387 1 5 348
1927277N17089 1927 56 NI BB NOT_NAMED 1927-10-07 03:00:00 TS 23.8213 80.3713 main 0 0 _________PO___ -1 23.9425 80.3425 TC 30 23.7000 80.4000 1 5 350
1927277N17089 1927 56 NI BB NOT_NAMED 1927-10-07 06:00:00 TS 24.0678 80.3299 main 0 0 _________OP___ -1 24.2000 80.3000 TC 30 23.9356 80.3597 1 5 354
1927277N17089 1927 56 NI BB NOT_NAMED 1927-10-07 09:00:00 TS 24.3175 80.3100 main 0 0 _________PP___ -1 24.4500 80.2925 TC 30 24.1850 80.3276 1 5 358
1927277N17089 1927 56 NI BB NOT_NAMED 1927-10-07 12:00:00 TS 24.5709 80.3033 main 0 0 _________OP___ -1 24.7000 80.3000 TC 30 24.4419 80.3066 1 5 357
1927277N17089 1927 56 NI BB NOT_NAMED 1927-10-07 15:00:00 TS 24.8250 80.2963 main 0 0 _________PO___ -1 24.9500 80.2925 TC 30 24.7000 80.3000 1 5 3
1927277N17089 1927 56 NI BB NOT_NAMED 1927-10-07 18:00:00 TS 25.0596 80.3055 main 0 0 _________OP___ -1 25.2000 80.3000 TC 30 24.9544 80.3096 1 5 5
1927277N17089 1927 56 NI BB NOT_NAMED 1927-10-07 21:00:00 TS 25.3030 80.3353 main 0 0 _________PP___ -1 25.4500 80.3399 TC 30 25.2050 80.3323 1 5 9
1927277N17089 1927 56 NI BB NOT_NAMED 1927-10-08 00:00:00 TS 25.5354 80.3759 main 0 0 _________OP___ -1 25.7000 80.4000 TC 30 25.4531 80.3639 1 4 9
1927277N17089 1927 56 NI BB NOT_NAMED 1927-10-08 03:00:00 NR 25.7000 80.4000 main 0 __________O___ -1 TC 25.7000 80.4000 1 3 0

About IBTrACS Database

This database is a web-friendly format of International Best Track Archive for Climate Stewardship (IBTrACS), a global best track data archive curated by NOAA dating back to 1842.

Updated: 2021-10-21